Time;durP1;ratioP1;P1;durP2;ratioP2;P2;SDS_P1;SDS_P2;PMS_P1;PMS_P2;Temp;Humidity;BMP_temperature;BMP_pressure;BME280_temperature;BME280_humidity;BME280_pressure;Samples;Min_cycle;Max_cycle;Signal;HPM_P1;HPM_P2
2023/01/16 00:00:52;;;;;;;4.13;0.90;;;8.20;96.70;;;;;;4994758;28;20129;-85
2023/01/16 00:03:18;;;;;;;8.95;0.85;;;8.10;96.70;;;;;;4994488;28;20038;-84
2023/01/16 00:05:44;;;;;;;2.60;0.57;;;8.20;96.70;;;;;;4995998;28;20042;-86
2023/01/16 00:08:10;;;;;;;4.30;0.95;;;8.00;96.80;;;;;;4995230;28;20224;-85
2023/01/16 00:10:36;;;;;;;3.10;0.63;;;8.10;96.70;;;;;;4995430;28;20122;-85
2023/01/16 00:13:02;;;;;;;4.53;0.93;;;8.10;96.60;;;;;;4994618;28;20114;-87
2023/01/16 00:15:27;;;;;;;4.40;0.73;;;8.20;96.70;;;;;;4994790;28;20031;-85
2023/01/16 00:17:53;;;;;;;5.93;1.00;;;8.10;96.70;;;;;;4994401;28;20403;-85
2023/01/16 00:20:19;;;;;;;6.18;0.80;;;8.00;96.60;;;;;;4995285;28;20501;-83
2023/01/16 00:22:44;;;;;;;3.03;0.80;;;8.10;96.60;;;;;;4997396;28;20034;-83
2023/01/16 00:25:13;;;;;;;7.82;0.93;;;8.10;96.50;;;;;;4998723;28;20519;-84
2023/01/16 00:27:38;;;;;;;4.88;1.15;;;8.20;96.40;;;;;;5003067;28;20311;-84
2023/01/16 00:30:06;;;;;;;5.18;1.02;;;8.20;96.30;;;;;;5003850;28;20054;-86
2023/01/16 00:32:33;;;;;;;4.80;1.20;;;8.30;96.30;;;;;;5005253;28;20030;-85
2023/01/16 00:34:58;;;;;;;1.25;0.57;;;8.30;96.30;;;;;;5002735;28;20286;-85
2023/01/16 00:37:24;;;;;;;3.53;0.98;;;8.20;96.10;;;;;;4994715;28;20037;-84
2023/01/16 00:39:51;;;;;;;5.10;0.73;;;8.20;96.10;;;;;;4993625;28;20037;-82
2023/01/16 00:42:17;;;;;;;6.20;0.50;;;8.30;96.00;;;;;;4993339;28;20114;-85
2023/01/16 00:44:43;;;;;;;7.25;0.68;;;8.30;96.10;;;;;;4993846;28;20114;-85
2023/01/16 00:47:09;;;;;;;3.70;0.88;;;8.20;95.90;;;;;;4994151;28;20030;-83
2023/01/16 00:49:35;;;;;;;2.70;0.80;;;8.30;95.90;;;;;;4993708;28;20038;-83
2023/01/16 00:52:00;;;;;;;6.22;0.98;;;8.40;95.80;;;;;;4993277;28;20065;-83
2023/01/16 00:54:26;;;;;;;6.18;1.23;;;8.30;95.90;;;;;;4994262;28;20497;-86
2023/01/16 00:56:51;;;;;;;5.13;0.85;;;8.20;95.80;;;;;;4993913;28;20031;-87
2023/01/16 00:59:17;;;;;;;6.25;0.90;;;8.20;95.80;;;;;;4995650;28;20112;-87
2023/01/16 01:01:43;;;;;;;5.35;0.80;;;8.10;95.80;;;;;;4993289;28;20102;-84
2023/01/16 01:04:09;;;;;;;2.40;0.60;;;8.20;96.20;;;;;;4993850;28;20033;-86
2023/01/16 01:06:34;;;;;;;5.97;1.55;;;8.20;96.10;;;;;;4993662;28;20022;-81
2023/01/16 01:09:00;;;;;;;3.92;0.88;;;8.10;96.20;;;;;;4994240;28;20063;-85
2023/01/16 01:11:26;;;;;;;2.88;0.73;;;8.20;96.40;;;;;;4994531;28;20123;-85
2023/01/16 01:13:51;;;;;;;5.45;1.05;;;8.00;96.40;;;;;;4993818;28;20296;-87
2023/01/16 01:16:17;;;;;;;25.63;7.78;;;8.00;96.30;;;;;;4993407;28;20026;-87
2023/01/16 01:18:43;;;;;;;34.75;16.80;;;8.00;96.30;;;;;;4994499;28;20436;-87
2023/01/16 01:21:09;;;;;;;3.08;1.55;;;8.10;96.30;;;;;;4994248;28;20049;-86
2023/01/16 01:23:36;;;;;;;10.52;1.27;;;8.10;96.30;;;;;;4994151;28;20061;-82
2023/01/16 01:26:10;;;;;;;3.85;0.50;;;8.00;96.30;;;;;;4992853;28;20062;-82
2023/01/16 01:28:35;;;;;;;5.35;0.80;;;8.00;96.40;;;;;;4993523;28;20114;-85
2023/01/16 01:31:04;;;;;;;3.42;1.02;;;7.90;96.70;;;;;;4994226;28;20055;-84
2023/01/16 01:33:30;;;;;;;2.30;0.70;;;7.90;96.90;;;;;;4993067;28;20053;-86
2023/01/16 01:35:55;;;;;;;6.32;0.60;;;7.90;96.90;;;;;;4994984;28;20026;-84
2023/01/16 01:38:21;;;;;;;6.07;0.52;;;7.90;97.10;;;;;;4992755;28;20476;-87
2023/01/16 01:40:47;;;;;;;5.45;0.70;;;7.90;97.30;;;;;;4993178;28;20030;-85
2023/01/16 01:43:14;;;;;;;4.38;0.50;;;7.90;97.50;;;;;;4993249;28;20030;-83
2023/01/16 01:45:42;;;;;;;3.60;0.80;;;7.80;97.50;;;;;;4992363;28;20101;-85
2023/01/16 01:48:18;;;;;;;;;;;7.90;97.60;;;;;;4994051;28;20057;-86
2023/01/16 01:50:50;;;;;;;0.77;0.40;;;7.90;97.70;;;;;;4993886;28;19968;-83
2023/01/16 01:53:37;;;;;;;5.75;0.43;;;7.90;97.80;;;;;;4992440;28;20527;-83
2023/01/16 01:56:12;;;;;;;2.65;0.60;;;7.80;98.00;;;;;;4992784;28;20042;-86
2023/01/16 01:58:39;;;;;;;1.55;0.60;;;7.70;98.00;;;;;;4991742;28;20092;-84
2023/01/16 02:01:05;;;;;;;5.13;0.98;;;7.80;98.00;;;;;;4992474;28;20121;-84
2023/01/16 02:03:40;;;;;;;3.25;1.50;;;7.80;97.90;;;;;;4991648;28;20130;-84
2023/01/16 02:06:12;;;;;;;7.55;0.90;;;7.70;98.00;;;;;;4992699;28;20030;-82
2023/01/16 02:08:38;;;;;;;2.15;0.47;;;7.80;98.00;;;;;;4992713;28;20018;-83
2023/01/16 02:11:25;;;;;;;4.60;0.70;;;7.70;98.00;;;;;;4992720;28;20050;-83
2023/01/16 02:13:53;;;;;;;4.13;0.47;;;7.70;98.10;;;;;;4991320;28;20035;-84
2023/01/16 02:19:16;;;;;;;2.67;0.50;;;7.50;98.40;;;;;;4992135;28;20494;-83
2023/01/16 02:21:56;;;;;;;2.22;0.50;;;7.50;98.60;;;;;;4991573;28;20035;-85
2023/01/16 02:24:59;;;;;;;2.72;0.65;;;7.50;98.60;;;;;;4992502;28;20026;-84
2023/01/16 02:28:02;;;;;;;2.38;0.55;;;7.40;98.60;;;;;;4992096;28;20042;-85
2023/01/16 02:30:33;;;;;;;5.53;0.75;;;7.50;98.60;;;;;;4991311;28;20053;-83
2023/01/16 02:33:10;;;;;;;6.60;0.95;;;7.50;98.70;;;;;;4992567;28;20049;-88
2023/01/16 02:35:47;;;;;;;2.85;0.65;;;7.40;98.80;;;;;;4992889;28;20163;-84
2023/01/16 02:38:26;;;;;;;1.80;0.80;;;7.50;98.70;;;;;;4992518;28;20043;-84
2023/01/16 02:41:18;;;;;;;2.70;0.68;;;7.50;98.60;;;;;;4990973;28;20065;-87
2023/01/16 02:44:03;;;;;;;1.77;0.40;;;7.50;98.70;;;;;;4991219;28;20038;-86
2023/01/16 02:46:34;;;;;;;2.83;0.60;;;7.50;98.60;;;;;;4992148;28;20101;-87
2023/01/16 02:49:10;;;;;;;3.75;0.73;;;7.50;98.60;;;;;;4992091;28;20063;-85
2023/01/16 02:51:56;;;;;;;7.57;0.70;;;7.50;98.60;;;;;;4990990;28;20056;-84
2023/01/16 02:54:40;;;;;;;3.17;1.00;;;7.60;98.60;;;;;;4992677;28;20046;-86
2023/01/16 02:57:17;;;;;;;1.15;0.40;;;7.70;98.50;;;;;;4991273;28;20030;-84
2023/01/16 02:59:43;;;;;;;3.00;0.73;;;7.70;98.40;;;;;;4991417;28;20038;-84
2023/01/16 03:02:09;;;;;;;2.40;0.70;;;7.60;98.30;;;;;;4992346;28;20035;-85
2023/01/16 03:04:46;;;;;;;2.17;0.73;;;7.60;98.40;;;;;;4991499;28;20056;-84
2023/01/16 03:07:32;;;;;;;7.65;0.80;;;7.60;98.40;;;;;;4991168;28;20042;-84
2023/01/16 03:09:58;;;;;;;2.90;0.57;;;7.70;98.40;;;;;;4990869;28;20054;-86
2023/01/16 03:12:41;;;;;;;4.80;0.90;;;7.70;98.40;;;;;;4992144;28;20058;-85
2023/01/16 03:15:11;;;;;;;8.20;1.05;;;7.80;98.40;;;;;;4992071;28;20027;-85
2023/01/16 03:17:43;;;;;;;3.53;0.95;;;7.70;98.50;;;;;;4992827;28;20097;-85
2023/01/16 03:20:15;;;;;;;2.70;0.60;;;7.80;98.60;;;;;;4992286;28;20030;-87
2023/01/16 03:22:57;;;;;;;1.75;0.63;;;7.60;98.70;;;;;;4991875;28;20043;-84
2023/01/16 03:25:55;;;;;;;5.15;0.68;;;7.70;99.10;;;;;;4990705;28;20148;-87
2023/01/16 03:28:23;;;;;;;6.63;0.80;;;7.70;99.00;;;;;;4991224;28;20053;-86
2023/01/16 03:31:07;;;;;;;6.57;0.80;;;7.80;99.00;;;;;;4992222;28;20046;-85
2023/01/16 03:33:45;;;;;;;2.53;0.80;;;7.70;99.10;;;;;;4991447;28;20113;-85
2023/01/16 03:36:17;;;;;;;1.35;0.47;;;7.70;99.20;;;;;;4991350;28;20073;-85
2023/01/16 03:38:46;;;;;;;3.80;0.77;;;7.70;99.30;;;;;;4991219;28;20118;-85
2023/01/16 03:41:16;;;;;;;1.30;0.60;;;7.70;99.50;;;;;;4991910;28;20350;-87
2023/01/16 03:43:44;;;;;;;6.18;0.73;;;7.60;99.70;;;;;;4990376;28;20038;-85
2023/01/16 03:46:12;;;;;;;3.78;0.43;;;7.60;99.90;;;;;;4990213;28;20030;-84
2023/01/16 03:49:01;;;;;;;1.95;0.50;;;7.70;99.90;;;;;;4991080;28;20412;-85
2023/01/16 03:51:32;;;;;;;1.13;0.47;;;7.60;99.90;;;;;;4991775;28;20053;-84
2023/01/16 03:54:10;;;;;;;2.40;0.50;;;7.60;99.90;;;;;;4994780;28;20041;-84
2023/01/16 03:56:45;;;;;;;5.50;0.60;;;7.60;99.90;;;;;;4994320;28;20101;-85
2023/01/16 03:59:11;;;;;;;4.38;0.55;;;7.60;99.90;;;;;;4994891;28;20038;-85
2023/01/16 04:01:39;;;;;;;4.03;0.85;;;7.70;99.90;;;;;;4994946;28;20034;-85
2023/01/16 04:04:19;;;;;;;3.30;0.80;;;7.60;99.80;;;;;;4994588;28;20044;-83
2023/01/16 04:07:08;;;;;;;4.57;0.60;;;7.60;99.90;;;;;;4993309;28;20499;-83
2023/01/16 04:09:40;;;;;;;11.20;0.98;;;7.70;99.80;;;;;;4994577;28;20034;-84
2023/01/16 04:12:07;;;;;;;3.55;0.60;;;7.60;99.90;;;;;;4994537;28;20045;-85
2023/01/16 04:14:35;;;;;;;2.83;0.73;;;7.70;99.90;;;;;;4995267;28;20022;-85
2023/01/16 04:17:03;;;;;;;4.10;0.60;;;7.60;99.80;;;;;;4994748;28;20036;-85
2023/01/16 04:19:30;;;;;;;;;;;7.60;99.90;;;;;;4994770;28;20113;-83
2023/01/16 04:21:55;;;;;;;3.53;0.60;;;7.60;99.90;;;;;;4993129;28;20425;-82
2023/01/16 04:24:21;;;;;;;2.53;0.52;;;7.60;99.90;;;;;;4992977;28;20066;-85
2023/01/16 04:26:47;;;;;;;3.10;0.75;;;7.60;99.90;;;;;;4994658;28;20078;-84
2023/01/16 04:29:13;;;;;;;5.75;0.80;;;7.60;99.90;;;;;;4993067;28;20469;-84
2023/01/16 04:31:38;;;;;;;3.88;0.68;;;7.60;99.90;;;;;;4994396;28;20042;-84
2023/01/16 04:34:04;;;;;;;3.30;0.80;;;7.50;99.90;;;;;;4993147;28;20041;-84
2023/01/16 04:36:31;;;;;;;5.22;0.93;;;7.50;99.90;;;;;;4994575;28;20035;-84
2023/01/16 04:38:56;;;;;;;2.33;0.47;;;7.40;99.90;;;;;;4993244;28;20026;-84
2023/01/16 04:41:37;;;;;;;3.88;0.60;;;7.40;99.90;;;;;;4993748;28;20066;-84
2023/01/16 04:44:06;;;;;;;3.55;0.60;;;7.40;99.90;;;;;;4994224;28;20035;-87
2023/01/16 04:46:31;;;;;;;4.40;0.77;;;7.40;99.90;;;;;;4993187;28;20122;-85
2023/01/16 04:48:57;;;;;;;4.60;0.85;;;7.40;99.90;;;;;;4994101;28;20464;-85
2023/01/16 04:51:23;;;;;;;1.33;0.60;;;7.30;99.90;;;;;;4992892;28;20038;-84
2023/01/16 04:53:50;;;;;;;3.88;0.75;;;7.30;99.90;;;;;;4993104;28;20114;-85
2023/01/16 04:56:15;;;;;;;2.83;0.52;;;7.30;99.90;;;;;;4994463;28;20148;-84
2023/01/16 04:58:42;;;;;;;2.00;0.52;;;7.30;99.90;;;;;;4993878;28;20460;-85
2023/01/16 05:01:14;;;;;;;2.63;0.45;;;7.30;99.90;;;;;;4993842;28;20036;-88
2023/01/16 05:03:39;;;;;;;3.45;0.60;;;7.50;99.90;;;;;;4994011;28;20040;-85
2023/01/16 05:06:05;;;;;;;4.45;0.77;;;7.20;99.90;;;;;;4993043;28;20031;-86
2023/01/16 05:08:31;;;;;;;3.13;0.57;;;7.10;99.90;;;;;;4994417;28;20410;-86
2023/01/16 05:11:00;;;;;;;3.30;0.65;;;7.10;99.90;;;;;;4992050;28;20041;-84
2023/01/16 05:13:27;;;;;;;2.40;0.70;;;7.10;99.90;;;;;;4993031;28;20034;-84
2023/01/16 05:15:53;;;;;;;2.42;0.50;;;7.10;99.90;;;;;;4993060;28;20460;-84
2023/01/16 05:18:19;;;;;;;0.70;0.40;;;7.00;99.90;;;;;;4993352;28;20034;-86
2023/01/16 05:20:45;;;;;;;1.95;0.65;;;6.90;99.90;;;;;;4993491;28;20235;-87
2023/01/16 05:23:10;;;;;;;1.38;0.52;;;7.00;99.90;;;;;;4993327;28;20033;-86
2023/01/16 05:25:37;;;;;;;3.75;0.70;;;7.00;99.90;;;;;;4994189;28;20076;-83
2023/01/16 05:28:03;;;;;;;1.17;0.50;;;7.00;99.90;;;;;;4993323;28;20128;-83
2023/01/16 05:30:29;;;;;;;1.85;0.60;;;7.00;99.90;;;;;;4992457;28;20461;-83
2023/01/16 05:32:55;;;;;;;4.78;0.85;;;7.00;99.90;;;;;;4992408;28;20377;-85
2023/01/16 05:35:21;;;;;;;2.75;0.73;;;7.00;99.90;;;;;;4993566;28;20100;-83
2023/01/16 05:37:47;;;;;;;5.00;0.77;;;7.00;99.90;;;;;;4992755;28;20365;-82
2023/01/16 05:40:13;;;;;;;2.90;0.55;;;7.00;99.90;;;;;;4994131;28;20041;-82
2023/01/16 05:42:41;;;;;;;5.32;0.88;;;7.00;99.90;;;;;;4993846;28;20445;-83
2023/01/16 05:45:07;;;;;;;;;;;7.00;99.90;;;;;;4993256;28;20126;-84
2023/01/16 05:47:32;;;;;;;3.58;0.50;;;7.00;99.90;;;;;;4993952;28;20343;-83
2023/01/16 05:49:58;;;;;;;6.32;0.50;;;7.00;99.90;;;;;;4994319;28;20360;-84
2023/01/16 05:52:27;;;;;;;5.43;0.63;;;7.00;99.90;;;;;;4994795;28;20054;-84
2023/01/16 05:54:53;;;;;;;1.60;0.55;;;6.90;99.90;;;;;;4995869;28;20039;-84
2023/01/16 05:57:20;;;;;;;4.03;0.60;;;6.90;99.90;;;;;;4994858;28;20420;-85
2023/01/16 05:59:51;;;;;;;4.07;1.00;;;7.00;99.90;;;;;;4994818;28;20026;-84
2023/01/16 06:02:19;;;;;;;7.18;0.60;;;6.90;99.90;;;;;;4992311;28;20034;-83
2023/01/16 06:04:51;;;;;;;1.02;0.50;;;6.80;99.90;;;;;;4992121;28;20444;-84
2023/01/16 06:07:17;;;;;;;2.15;0.47;;;6.90;99.90;;;;;;4991159;28;20424;-83
2023/01/16 06:09:43;;;;;;;4.72;0.70;;;6.90;99.90;;;;;;4991138;28;20040;-84
2023/01/16 06:12:15;;;;;;;2.88;0.68;;;6.90;99.90;;;;;;4992636;28;20437;-87
2023/01/16 06:14:40;;;;;;;2.17;0.57;;;6.90;99.90;;;;;;4992622;28;20030;-86
2023/01/16 06:17:06;;;;;;;2.78;0.65;;;6.90;99.90;;;;;;4992651;28;20057;-90
2023/01/16 06:19:32;;;;;;;2.60;0.50;;;6.80;99.90;;;;;;5002309;28;20491;-84
2023/01/16 06:21:57;;;;;;;4.55;0.98;;;6.90;99.90;;;;;;5011618;28;20053;-85
2023/01/16 06:24:23;;;;;;;1.98;0.60;;;6.70;99.90;;;;;;5012252;28;20089;-88
2023/01/16 06:26:48;;;;;;;2.45;0.40;;;6.80;99.90;;;;;;5011771;28;20464;-83
2023/01/16 06:29:14;;;;;;;10.18;0.98;;;6.70;99.90;;;;;;5012956;28;20496;-83
2023/01/16 06:31:40;;;;;;;0.70;0.50;;;6.80;99.90;;;;;;5011396;28;20049;-83
2023/01/16 06:34:05;;;;;;;1.38;0.52;;;6.80;99.90;;;;;;5010497;28;20325;-81
2023/01/16 06:36:31;;;;;;;1.90;0.57;;;6.80;99.90;;;;;;5011803;28;20128;-82
2023/01/16 06:38:57;;;;;;;4.18;0.57;;;6.80;99.90;;;;;;5011607;28;20353;-83
2023/01/16 06:41:22;;;;;;;2.30;0.50;;;6.80;99.90;;;;;;5010946;28;20094;-83
2023/01/16 06:43:48;;;;;;;0.98;0.40;;;6.80;99.90;;;;;;5011745;28;20058;-82
2023/01/16 06:46:14;;;;;;;0.70;0.47;;;6.80;99.90;;;;;;5011531;28;20416;-84
2023/01/16 06:48:41;;;;;;;1.75;0.60;;;6.80;99.90;;;;;;5010984;28;20033;-82
2023/01/16 06:51:07;;;;;;;1.23;0.40;;;6.80;99.90;;;;;;5010052;28;20488;-83
2023/01/16 06:53:33;;;;;;;0.65;0.40;;;6.80;99.90;;;;;;5011767;28;20097;-83
2023/01/16 06:55:58;;;;;;;2.70;0.70;;;6.80;99.90;;;;;;5011671;28;20512;-81
2023/01/16 06:58:24;;;;;;;6.38;0.68;;;6.80;99.90;;;;;;5011450;28;20036;-83
2023/01/16 07:00:50;;;;;;;3.80;0.85;;;6.80;99.90;;;;;;5011331;28;20451;-84
2023/01/16 07:03:17;;;;;;;3.20;0.85;;;6.70;99.90;;;;;;5012209;28;20053;-80
2023/01/16 07:05:45;;;;;;;3.33;0.85;;;6.70;99.90;;;;;;5011970;28;20084;-83
2023/01/16 07:08:11;;;;;;;1.75;0.70;;;6.80;99.90;;;;;;5009865;28;20168;-83
2023/01/16 07:10:37;;;;;;;3.22;0.80;;;6.70;99.90;;;;;;5011234;28;20054;-82
2023/01/16 07:13:02;;;;;;;2.83;0.90;;;6.60;99.90;;;;;;5003300;28;20039;-81
2023/01/16 07:23:55;;;;;;;4.03;0.73;;;6.70;99.90;;;;;;4991637;28;20738;-82
2023/01/16 07:26:22;;;;;;;5.40;0.82;;;6.70;99.90;;;;;;4990452;28;20377;-82
2023/01/16 07:28:49;;;;;;;2.78;0.52;;;6.70;99.90;;;;;;4994812;28;20034;-81
2023/01/16 07:31:15;;;;;;;3.95;0.95;;;6.80;99.90;;;;;;4994805;28;20039;-80
2023/01/16 07:33:41;;;;;;;3.22;0.70;;;6.80;99.90;;;;;;4994626;28;20038;-78
2023/01/16 07:36:07;;;;;;;2.60;0.90;;;6.80;99.90;;;;;;4994419;28;20015;-83
2023/01/16 07:38:33;;;;;;;5.80;0.80;;;6.70;99.90;;;;;;4993868;28;20448;-80
2023/01/16 07:40:58;;;;;;;1.65;0.65;;;6.70;99.90;;;;;;4994627;28;20065;-80
2023/01/16 07:43:24;;;;;;;2.80;1.10;;;6.80;99.90;;;;;;4993581;28;20042;-83
2023/01/16 07:45:52;;;;;;;6.75;0.73;;;6.80;99.90;;;;;;4994428;28;20482;-80
2023/01/16 07:48:21;;;;;;;6.32;1.67;;;6.80;99.90;;;;;;4994303;28;20369;-80
2023/01/16 07:50:56;;;;;;;4.10;0.90;;;6.70;99.90;;;;;;4993738;28;20030;-83
2023/01/16 07:53:24;;;;;;;7.75;2.70;;;6.80;99.90;;;;;;4990437;28;20062;-78
2023/01/16 07:55:51;;;;;;;6.43;1.98;;;7.00;99.90;;;;;;4990014;28;20026;-77
2023/01/16 07:58:17;;;;;;;2.78;1.00;;;6.90;99.90;;;;;;4993009;28;20430;-81
2023/01/16 08:00:44;;;;;;;2.28;0.60;;;6.90;99.90;;;;;;4993214;28;20499;-80
2023/01/16 08:03:10;;;;;;;5.50;1.27;;;7.00;99.90;;;;;;4993191;28;20034;-79
2023/01/16 08:05:36;;;;;;;9.00;2.13;;;7.20;99.90;;;;;;4993609;28;20530;-80
2023/01/16 08:08:02;;;;;;;6.03;1.80;;;7.00;99.90;;;;;;4992463;28;20062;-82
2023/01/16 08:10:28;;;;;;;2.60;1.17;;;7.10;99.90;;;;;;4993655;28;20069;-81
2023/01/16 08:12:54;;;;;;;3.33;0.70;;;7.10;99.90;;;;;;4992778;28;20061;-80
2023/01/16 08:15:20;;;;;;;2.13;0.65;;;7.10;99.90;;;;;;4994532;28;20050;-84
2023/01/16 08:17:46;;;;;;;2.03;0.77;;;7.10;99.90;;;;;;4995251;28;20036;-84
2023/01/16 08:20:11;;;;;;;2.75;0.70;;;7.20;99.90;;;;;;4994130;28;20049;-79
2023/01/16 08:22:49;;;;;;;3.60;0.60;;;7.20;99.90;;;;;;4992697;28;20093;-84
2023/01/16 08:25:16;;;;;;;;;;;7.30;99.90;;;;;;4993027;28;20053;-82
2023/01/16 08:27:41;;;;;;;4.30;0.90;;;7.30;99.90;;;;;;4992541;28;19917;-80
2023/01/16 08:30:08;;;;;;;1.33;0.85;;;7.30;99.90;;;;;;4992324;28;20448;-81
2023/01/16 08:32:34;;;;;;;7.63;1.35;;;7.40;99.90;;;;;;4993998;28;20030;-77
2023/01/16 08:35:00;;;;;;;4.00;0.77;;;7.40;99.90;;;;;;4993380;28;20465;-79
2023/01/16 08:37:26;;;;;;;3.35;0.88;;;7.40;99.90;;;;;;4993202;28;20049;-80
2023/01/16 08:39:52;;;;;;;4.63;1.05;;;7.60;99.90;;;;;;4993072;28;20402;-79
2023/01/16 08:53:14;;;;;;;5.47;0.73;;;7.90;99.90;;;;;;4993415;28;20041;-76
2023/01/16 08:55:40;;;;;;;5.10;0.88;;;7.90;99.70;;;;;;4993585;28;20026;-79
2023/01/16 08:58:06;;;;;;;2.33;0.65;;;8.10;99.60;;;;;;4992441;28;20089;-79
2023/01/16 09:00:33;;;;;;;1.00;0.65;;;7.90;99.60;;;;;;4992059;28;20042;-78
2023/01/16 09:03:01;;;;;;;7.65;3.00;;;7.90;99.50;;;;;;4993173;28;20026;-78
2023/01/16 09:05:27;;;;;;;8.55;3.47;;;8.00;99.50;;;;;;4994110;28;20030;-86
2023/01/16 09:07:53;;;;;;;6.10;1.40;;;8.00;99.60;;;;;;4992680;28;20037;-82
2023/01/16 09:10:19;;;;;;;2.33;0.63;;;8.00;99.60;;;;;;4992743;28;20093;-77
2023/01/16 09:15:29;;;;;;;7.03;0.85;;;8.10;99.30;;;;;;4992921;28;20420;-79
2023/01/16 09:17:55;;;;;;;3.92;1.00;;;8.20;99.30;;;;;;4992827;28;20149;-80
2023/01/16 09:20:21;;;;;;;4.22;0.70;;;8.40;99.00;;;;;;4992524;28;20467;-78
2023/01/16 09:22:46;;;;;;;3.33;1.10;;;8.20;98.80;;;;;;4991857;28;20438;-76
2023/01/16 09:25:12;;;;;;;2.38;0.50;;;8.20;99.00;;;;;;4991444;28;20488;-77
2023/01/16 09:27:38;;;;;;;6.07;1.42;;;8.20;99.00;;;;;;4992607;28;20034;-76
2023/01/16 09:30:05;;;;;;;3.50;0.80;;;8.20;99.00;;;;;;4992510;28;20404;-74
2023/01/16 09:32:33;;;;;;;1.83;0.80;;;8.20;98.90;;;;;;4993137;28;20445;-74
2023/01/16 09:34:59;;;;;;;2.55;0.85;;;8.10;98.90;;;;;;4991372;28;20038;-77
2023/01/16 09:37:24;;;;;;;5.53;0.85;;;8.10;98.80;;;;;;4991382;28;20477;-76
2023/01/16 09:39:50;;;;;;;6.82;1.45;;;8.10;98.90;;;;;;4992990;28;20038;-78
2023/01/16 09:45:25;;;;;;;4.47;0.75;;;8.10;99.00;;;;;;4992380;28;20594;-79
2023/01/16 09:47:55;;;;;;;4.47;0.82;;;8.00;98.70;;;;;;4992903;28;20101;-78
2023/01/16 09:50:44;;;;;;;2.22;0.63;;;8.00;98.70;;;;;;4991971;28;20126;-81
2023/01/16 09:59:12;;;;;;;4.55;1.50;;;7.90;98.80;;;;;;4992403;28;20030;-80
2023/01/16 10:01:44;;;;;;;2.88;0.60;;;7.90;98.80;;;;;;4992611;28;20034;-80
2023/01/16 10:04:21;;;;;;;2.95;0.63;;;7.90;98.80;;;;;;4992216;28;20030;-79
2023/01/16 10:06:59;;;;;;;5.20;0.90;;;7.90;98.90;;;;;;4991100;28;20038;-80
2023/01/16 10:09:50;;;;;;;2.78;0.95;;;7.90;98.80;;;;;;4991996;28;20030;-79
2023/01/16 10:12:16;;;;;;;3.72;0.93;;;7.90;98.80;;;;;;4991880;28;20052;-76
2023/01/16 10:15:24;;;;;;;5.13;0.70;;;7.90;98.70;;;;;;4992606;28;20030;-79
2023/01/16 10:18:16;;;;;;;9.70;2.33;;;7.90;98.60;;;;;;4989641;28;20093;-77
2023/01/16 10:21:13;;;;;;;6.38;2.17;;;7.90;98.70;;;;;;4992493;28;20026;-78
2023/01/16 10:23:41;;;;;;;2.13;0.47;;;7.90;98.60;;;;;;4992279;28;20054;-78
2023/01/16 10:26:27;;;;;;;1.33;0.57;;;7.90;98.70;;;;;;4991820;28;20042;-78
2023/01/16 10:29:20;;;;;;;3.65;0.52;;;7.90;98.60;;;;;;4991955;28;20030;-81
2023/01/16 10:32:10;;;;;;;2.38;0.90;;;8.00;98.50;;;;;;4991769;28;20472;-79
2023/01/16 10:34:51;;;;;;;5.35;0.70;;;8.10;98.60;;;;;;4991939;28;20034;-80
2023/01/16 10:37:19;;;;;;;2.17;0.65;;;8.30;98.30;;;;;;4990776;28;20046;-81
2023/01/16 10:39:44;;;;;;;7.00;0.77;;;8.40;98.20;;;;;;4991177;28;20217;-78
2023/01/16 10:50:35;;;;;;;2.72;0.47;;;8.40;97.60;;;;;;4992035;28;20048;-77
2023/01/16 10:53:01;;;;;;;3.95;0.70;;;8.50;97.70;;;;;;4991785;28;20034;-77
2023/01/16 10:55:27;;;;;;;4.30;1.27;;;8.60;97.70;;;;;;4991490;28;20054;-77
2023/01/16 10:57:56;;;;;;;7.75;3.28;;;8.50;97.60;;;;;;4991547;28;20096;-75
2023/01/16 11:00:30;;;;;;;3.22;0.60;;;8.60;97.60;;;;;;4991405;28;20093;-78
2023/01/16 11:03:12;;;;;;;3.28;0.90;;;8.40;97.30;;;;;;4994967;28;20720;-79
2023/01/16 11:05:38;;;;;;;2.00;0.98;;;8.40;97.40;;;;;;4996338;28;20027;-79
2023/01/16 11:08:18;;;;;;;3.25;0.68;;;8.40;97.40;;;;;;4994615;28;20062;-78
2023/01/16 11:10:48;;;;;;;5.35;1.10;;;8.50;97.40;;;;;;4994721;28;20030;-79
2023/01/16 11:18:57;;;;;;;2.97;1.23;;;8.30;97.30;;;;;;4995467;28;20057;-75
2023/01/16 11:21:32;;;;;;;6.75;0.95;;;8.20;97.30;;;;;;4995154;28;20035;-75
2023/01/16 11:24:19;;;;;;;3.80;0.75;;;8.30;97.30;;;;;;4994113;28;20025;-79
2023/01/16 11:26:52;;;;;;;1.73;0.50;;;8.20;97.20;;;;;;4994794;28;20108;-78
2023/01/16 11:29:20;;;;;;;1.85;0.73;;;8.20;97.10;;;;;;4994994;28;20058;-77
2023/01/16 11:32:02;;;;;;;3.70;0.85;;;8.20;97.00;;;;;;4994935;28;20520;-76
2023/01/16 11:34:29;;;;;;;3.70;0.50;;;8.20;97.00;;;;;;4994832;28;20061;-77
2023/01/16 11:36:59;;;;;;;5.20;0.40;;;8.20;96.80;;;;;;4995149;28;20413;-77
2023/01/16 11:39:28;;;;;;;7.03;0.63;;;8.20;96.90;;;;;;4994984;28;20042;-76
2023/01/16 11:41:56;;;;;;;3.38;0.60;;;8.10;96.60;;;;;;4993987;28;20018;-77
2023/01/16 11:47:15;;;;;;;4.40;0.70;;;8.20;96.70;;;;;;4994628;28;20049;-76
2023/01/16 11:49:49;;;;;;;1.92;0.52;;;8.30;96.60;;;;;;4994612;28;20042;-77
2023/01/16 11:52:27;;;;;;;2.17;0.73;;;8.20;96.60;;;;;;4994648;28;20038;-81
2023/01/16 11:54:56;;;;;;;2.67;0.68;;;8.20;96.60;;;;;;4993274;28;20484;-79
2023/01/16 11:57:41;;;;;;;2.25;0.90;;;8.10;96.40;;;;;;4993585;28;20045;-81
2023/01/16 12:00:33;;;;;;;5.50;0.70;;;8.20;96.60;;;;;;4994379;28;20046;-80
2023/01/16 12:03:08;;;;;;;5.18;0.93;;;8.30;96.40;;;;;;4994678;28;20030;-77
2023/01/16 12:05:56;;;;;;;5.75;0.82;;;8.20;96.30;;;;;;4995000;28;20030;-79
2023/01/16 12:08:33;;;;;;;2.60;0.65;;;8.20;96.10;;;;;;4995094;28;20064;-81
2023/01/16 12:11:27;;;;;;;3.80;0.60;;;8.30;96.10;;;;;;4994699;28;20097;-75
2023/01/16 12:14:18;;;;;;;3.80;0.60;;;8.30;96.20;;;;;;4992159;28;20314;-80
2023/01/16 12:16:58;;;;;;;4.20;0.68;;;8.30;96.10;;;;;;4993412;28;20040;-78
2023/01/16 12:20:18;;;;;;;2.08;0.80;;;8.30;95.90;;;;;;4993179;28;20084;-81
2023/01/16 12:23:01;;;;;;;4.72;0.70;;;8.40;96.00;;;;;;4992335;28;20061;-77
2023/01/16 12:25:50;;;;;;;4.80;0.80;;;8.40;95.90;;;;;;4994524;28;20038;-79
2023/01/16 12:28:24;;;;;;;3.53;0.73;;;8.50;95.70;;;;;;4994051;28;20516;-75
2023/01/16 12:34:27;;;;;;;5.00;0.73;;;8.70;95.60;;;;;;4991881;28;20038;-77
2023/01/16 12:37:26;;;;;;;9.18;0.65;;;8.70;95.40;;;;;;4993221;28;20040;-77
2023/01/16 12:40:15;;;;;;;3.65;0.50;;;8.80;95.20;;;;;;4994079;28;20420;-76
2023/01/16 12:43:19;;;;;;;1.98;0.63;;;8.80;95.20;;;;;;4994082;28;20073;-78
2023/01/16 12:46:15;;;;;;;2.50;0.57;;;8.80;95.20;;;;;;4992730;28;20050;-76
2023/01/16 12:49:00;;;;;;;5.05;0.75;;;8.70;95.10;;;;;;4994125;28;20113;-76
2023/01/16 12:51:34;;;;;;;2.55;0.47;;;8.70;95.40;;;;;;4993592;28;20038;-75
2023/01/16 12:54:18;;;;;;;4.57;1.65;;;8.70;95.40;;;;;;4993576;28;20026;-78
2023/01/16 12:56:53;;;;;;;10.15;2.03;;;8.70;95.40;;;;;;4994583;28;20161;-77
2023/01/16 12:59:28;;;;;;;2.17;1.00;;;8.80;95.50;;;;;;4992725;28;20137;-79
2023/01/16 13:02:09;;;;;;;4.80;0.80;;;8.80;95.60;;;;;;4993194;28;20416;-78
2023/01/16 13:04:41;;;;;;;6.13;0.88;;;8.90;95.50;;;;;;4993502;28;20117;-80
2023/01/16 13:07:12;;;;;;;2.60;0.73;;;9.00;95.50;;;;;;4994077;28;20038;-79
2023/01/16 13:13:24;;;;;;;5.20;1.10;;;9.20;95.40;;;;;;4992573;28;20100;-80
2023/01/16 13:16:13;;;;;;;3.38;0.90;;;9.30;95.30;;;;;;4993586;28;20038;-79
2023/01/16 13:18:53;;;;;;;4.43;0.70;;;9.30;95.10;;;;;;4992331;28;20479;-82
2023/01/16 13:21:24;;;;;;;5.60;1.02;;;9.20;95.00;;;;;;4993252;28;20489;-82
2023/01/16 13:24:19;;;;;;;4.85;0.90;;;9.30;95.10;;;;;;4993838;28;20360;-80
2023/01/16 13:26:55;;;;;;;4.00;0.43;;;9.40;95.00;;;;;;4993485;28;20495;-82
2023/01/16 13:29:32;;;;;;;2.40;0.60;;;9.10;94.90;;;;;;4992898;28;20120;-79
2023/01/16 13:32:13;;;;;;;2.33;0.80;;;9.10;95.00;;;;;;4992733;28;20035;-82
2023/01/16 13:34:44;;;;;;;1.10;0.43;;;9.30;95.10;;;;;;4992573;28;20049;-78
2023/01/16 13:37:26;;;;;;;2.17;0.70;;;9.00;95.00;;;;;;4985941;28;20102;-77
2023/01/16 13:40:07;;;;;;;4.55;0.77;;;9.00;95.20;;;;;;4995997;28;20049;-77
2023/01/16 13:42:36;;;;;;;2.42;0.55;;;9.00;95.30;;;;;;4992646;28;20532;-77
2023/01/16 13:47:56;;;;;;;2.15;0.55;;;9.00;95.40;;;;;;4992790;28;20033;-76
2023/01/16 13:50:31;;;;;;;3.60;0.55;;;8.90;95.40;;;;;;4993080;28;20030;-77
2023/01/16 13:53:08;;;;;;;4.13;0.75;;;8.90;95.40;;;;;;4991186;28;20030;-75
2023/01/16 13:55:43;;;;;;;0.70;0.37;;;8.90;95.40;;;;;;4992189;28;20023;-78
2023/01/16 13:58:39;;;;;;;2.60;0.88;;;8.90;95.40;;;;;;4991694;28;20172;-80
2023/01/16 14:01:25;;;;;;;2.15;0.68;;;8.80;95.60;;;;;;4990601;28;20030;-77
2023/01/16 14:04:11;;;;;;;2.60;0.40;;;8.70;95.50;;;;;;4992199;28;20077;-82
2023/01/16 14:10:21;;;;;;;9.88;3.70;;;8.60;95.50;;;;;;4992854;28;20041;-84
2023/01/16 14:13:00;;;;;;;13.85;6.88;;;8.60;95.60;;;;;;4992321;28;20065;-80
2023/01/16 14:18:56;;;;;;;2.15;0.60;;;8.50;95.80;;;;;;4992845;28;20042;-81
2023/01/16 14:21:28;;;;;;;1.20;0.40;;;8.50;96.00;;;;;;4993132;28;20510;-84
2023/01/16 14:24:01;;;;;;;3.00;0.40;;;8.50;96.00;;;;;;4993084;28;20106;-84
2023/01/16 14:26:44;;;;;;;3.08;0.52;;;8.50;95.80;;;;;;4992498;28;20086;-83
2023/01/16 14:29:30;;;;;;;1.05;0.30;;;8.40;95.70;;;;;;4992170;28;20376;-81